createdAt,value
2017-11-16T00:00:43.941Z,25.40
2017-11-16T00:03:11.496Z,25.87
2017-11-16T00:05:39.144Z,26.43
2017-11-16T00:08:06.701Z,25.67
2017-11-16T00:10:35.010Z,24.10
2017-11-16T00:13:02.545Z,24.97
2017-11-16T00:15:30.390Z,22.90
2017-11-16T00:17:58.077Z,27.80
2017-11-16T00:20:26.469Z,24.43
2017-11-16T00:22:54.009Z,24.37
2017-11-16T00:25:21.632Z,25.20
2017-11-16T00:27:50.540Z,26.67
2017-11-16T00:30:18.571Z,22.97
2017-11-16T00:32:47.427Z,23.93
2017-11-16T00:35:15.061Z,23.93
2017-11-16T00:37:43.215Z,26.70
2017-11-16T00:40:10.730Z,24.00
2017-11-16T00:42:38.444Z,27.93
2017-11-16T00:45:06.913Z,28.77
2017-11-16T00:50:38.329Z,26.43
2017-11-16T00:53:06.002Z,27.43
2017-11-16T00:55:33.585Z,25.07
2017-11-16T00:58:01.079Z,26.27
2017-11-16T01:00:28.605Z,22.40
2017-11-16T01:02:56.168Z,22.00
2017-11-16T01:05:23.676Z,24.33
2017-11-16T01:07:51.709Z,25.50
2017-11-16T01:10:19.211Z,26.90
2017-11-16T01:12:46.734Z,23.10
2017-11-16T01:15:14.187Z,25.60
2017-11-16T01:17:41.810Z,25.90
2017-11-16T01:20:09.275Z,25.07
2017-11-16T01:22:37.981Z,26.37
2017-11-16T01:25:05.488Z,26.03
2017-11-16T01:27:33.019Z,24.63
2017-11-16T01:30:01.422Z,24.87
2017-11-16T01:32:28.895Z,20.57
2017-11-16T01:34:56.434Z,23.33
2017-11-16T01:37:23.961Z,22.17
2017-11-16T01:39:51.701Z,22.83
2017-11-16T01:42:19.289Z,22.33
2017-11-16T01:44:46.798Z,24.83
2017-11-16T01:47:14.682Z,22.30
2017-11-16T01:49:42.259Z,21.83
2017-11-16T01:52:09.769Z,19.23
2017-11-16T01:54:37.304Z,22.83
2017-11-16T01:57:10.255Z,20.30
2017-11-16T01:59:37.806Z,20.10
2017-11-16T02:05:06.936Z,20.03
2017-11-16T02:07:35.454Z,20.37
2017-11-16T02:10:03.011Z,19.53
2017-11-16T02:12:31.455Z,21.13
2017-11-16T02:14:59.254Z,18.30
2017-11-16T02:17:26.900Z,19.77
2017-11-16T02:19:54.705Z,19.83
2017-11-16T02:22:22.476Z,18.33
2017-11-16T02:24:50.400Z,17.30
2017-11-16T02:27:18.281Z,18.37
2017-11-16T02:29:47.248Z,21.30
2017-11-16T02:32:16.645Z,21.47
2017-11-16T02:34:45.181Z,18.20
2017-11-16T02:37:12.703Z,19.50
2017-11-16T02:39:40.718Z,20.20
2017-11-16T02:42:08.361Z,16.83
2017-11-16T02:44:35.892Z,17.97
2017-11-16T02:47:03.755Z,20.20
2017-11-16T02:49:31.391Z,22.53
2017-11-16T02:51:58.975Z,21.83
2017-11-16T02:54:26.472Z,24.00
2017-11-16T02:56:54.252Z,20.87
2017-11-16T02:59:21.834Z,23.00
2017-11-16T03:01:49.410Z,23.80
2017-11-16T03:04:17.213Z,20.97
2017-11-16T03:06:44.775Z,23.60
2017-11-16T03:09:12.633Z,24.43
2017-11-16T03:11:40.098Z,26.60
2017-11-16T03:14:07.593Z,25.63
2017-11-16T03:16:49.578Z,25.03
2017-11-16T03:19:17.760Z,27.03
2017-11-16T03:21:46.339Z,24.63
2017-11-16T03:24:14.156Z,22.67
2017-11-16T03:26:41.742Z,28.90
2017-11-16T03:29:09.218Z,26.23
2017-11-16T03:31:36.893Z,27.50
2017-11-16T03:34:04.883Z,27.93
2017-11-16T03:36:32.404Z,29.13
2017-11-16T03:39:00.000Z,28.23
2017-11-16T03:41:28.304Z,30.03
2017-11-16T03:43:56.873Z,27.13
2017-11-16T03:46:25.406Z,27.77
2017-11-16T03:48:53.803Z,27.07
2017-11-16T03:51:21.349Z,27.70
2017-11-16T03:53:49.798Z,27.70
2017-11-16T03:56:17.617Z,28.20
2017-11-16T03:58:45.459Z,28.93
2017-11-16T04:01:13.255Z,30.13
2017-11-16T04:03:42.856Z,29.70
2017-11-16T04:06:10.854Z,31.47
2017-11-16T04:08:38.727Z,30.70
2017-11-16T04:11:06.552Z,33.30
2017-11-16T04:13:34.680Z,30.13
2017-11-16T04:16:02.192Z,33.10
2017-11-16T04:18:30.810Z,31.70
2017-11-16T04:20:58.299Z,36.63
2017-11-16T04:23:25.920Z,35.43
2017-11-16T04:25:53.430Z,33.53
2017-11-16T04:28:21.123Z,36.00
2017-11-16T04:30:48.718Z,35.80
2017-11-16T04:33:16.216Z,29.87
2017-11-16T04:35:44.003Z,33.23
2017-11-16T04:38:21.153Z,37.33
2017-11-16T04:40:48.989Z,32.93
2017-11-16T04:43:16.580Z,36.03
2017-11-16T04:45:44.141Z,35.57
2017-11-16T04:48:11.913Z,36.17
2017-11-16T04:50:39.482Z,35.20
2017-11-16T04:53:07.382Z,35.10
2017-11-16T04:55:34.888Z,38.13
2017-11-16T04:58:02.448Z,35.10
2017-11-16T05:00:30.016Z,37.47
2017-11-16T05:02:57.672Z,39.53
2017-11-16T05:05:25.232Z,33.23
2017-11-16T05:07:52.721Z,31.90
2017-11-16T05:10:20.205Z,36.83
2017-11-16T05:12:47.931Z,36.47
2017-11-16T05:15:15.671Z,41.27
2017-11-16T05:17:43.510Z,36.07
2017-11-16T05:20:11.029Z,37.87
2017-11-16T05:22:38.612Z,38.80
2017-11-16T05:25:06.166Z,46.83
2017-11-16T05:27:33.694Z,37.13
2017-11-16T05:30:01.247Z,32.50
2017-11-16T05:32:28.917Z,32.70
2017-11-16T05:34:56.470Z,33.53
2017-11-16T05:37:24.029Z,37.30
2017-11-16T05:39:52.678Z,34.40
2017-11-16T05:42:20.268Z,34.10
2017-11-16T05:44:47.848Z,29.27
2017-11-16T05:47:15.403Z,31.23
2017-11-16T05:49:42.943Z,32.50
2017-11-16T05:52:10.473Z,29.90
2017-11-16T05:54:38.093Z,31.30
2017-11-16T05:57:05.805Z,29.00
2017-11-16T05:59:33.324Z,34.37
2017-11-16T06:02:00.932Z,30.57
2017-11-16T06:04:28.914Z,29.13
2017-11-16T06:06:56.466Z,30.00
2017-11-16T06:09:24.916Z,29.57
2017-11-16T06:11:52.622Z,26.57
2017-11-16T06:14:20.305Z,26.47
2017-11-16T06:16:47.798Z,30.63
2017-11-16T06:19:15.285Z,26.50
2017-11-16T06:21:42.991Z,28.43
2017-11-16T06:24:10.553Z,31.47
2017-11-16T06:26:38.324Z,28.47
2017-11-16T06:29:06.853Z,24.63
2017-11-16T06:31:34.405Z,26.77
2017-11-16T06:34:02.054Z,29.83
2017-11-16T06:36:29.820Z,28.07
2017-11-16T06:38:57.441Z,27.00
2017-11-16T06:41:25.191Z,31.47
2017-11-16T06:43:52.825Z,26.03
2017-11-16T06:46:20.399Z,29.80
2017-11-16T06:48:47.988Z,30.43
2017-11-16T06:51:15.721Z,28.77
2017-11-16T06:53:43.268Z,24.43
2017-11-16T06:56:10.940Z,27.50
2017-11-16T06:58:43.509Z,30.83
2017-11-16T07:01:11.081Z,24.13
2017-11-16T07:03:38.634Z,28.63
2017-11-16T07:06:06.212Z,23.83
2017-11-16T07:08:33.723Z,28.37
2017-11-16T07:11:01.408Z,30.10
2017-11-16T07:13:28.969Z,27.87
2017-11-16T07:15:56.459Z,29.17
2017-11-16T07:18:24.775Z,28.23
2017-11-16T07:20:52.545Z,29.47
2017-11-16T07:23:20.109Z,26.63
2017-11-16T07:25:47.771Z,26.47
2017-11-16T07:28:15.446Z,32.37
2017-11-16T07:30:42.984Z,28.57
2017-11-16T07:33:10.469Z,28.40
2017-11-16T07:35:37.981Z,28.73
2017-11-16T07:38:05.439Z,26.23
2017-11-16T07:40:33.098Z,30.73
2017-11-16T07:43:00.814Z,25.07
2017-11-16T07:45:28.684Z,29.70
2017-11-16T07:47:56.236Z,29.87
2017-11-16T07:50:23.892Z,25.93
2017-11-16T07:52:51.427Z,27.10
2017-11-16T07:55:18.918Z,25.40
2017-11-16T07:57:46.438Z,27.33
2017-11-16T08:00:14.058Z,25.87
2017-11-16T08:02:41.635Z,24.33
2017-11-16T08:05:10.325Z,24.97
2017-11-16T08:07:37.940Z,27.50
2017-11-16T08:10:05.476Z,26.27
2017-11-16T08:12:32.972Z,27.13
2017-11-16T08:15:00.458Z,27.17
2017-11-16T08:17:28.019Z,26.73
2017-11-16T08:19:55.642Z,26.90
2017-11-16T08:22:23.189Z,27.17
2017-11-16T08:24:53.110Z,30.63
2017-11-16T08:27:44.819Z,30.57
2017-11-16T08:30:12.401Z,31.77
2017-11-16T08:32:39.978Z,29.90
2017-11-16T08:35:07.555Z,31.23
2017-11-16T08:37:35.050Z,29.27
2017-11-16T08:40:02.644Z,28.87
2017-11-16T08:42:30.162Z,32.23
2017-11-16T08:44:57.847Z,37.27
2017-11-16T08:47:25.528Z,33.50
2017-11-16T08:49:53.075Z,37.53
2017-11-16T08:52:20.678Z,37.80
2017-11-16T08:54:48.229Z,39.90
2017-11-16T08:57:16.777Z,36.37
2017-11-16T08:59:44.642Z,38.17
2017-11-16T09:02:12.261Z,40.70
2017-11-16T09:04:39.868Z,33.23
2017-11-16T09:07:07.410Z,31.70
2017-11-16T09:09:34.936Z,34.47
2017-11-16T09:12:02.434Z,30.47
2017-11-16T09:14:29.980Z,33.27
2017-11-16T09:16:57.516Z,33.73
2017-11-16T09:19:25.426Z,32.13
2017-11-16T09:21:52.947Z,33.87
2017-11-16T09:24:20.679Z,29.93
2017-11-16T09:29:46.408Z,27.77
2017-11-16T09:32:14.046Z,26.90
2017-11-16T09:34:41.560Z,28.17
2017-11-16T09:37:09.108Z,25.97
2017-11-16T09:39:36.589Z,28.80
2017-11-16T09:42:05.239Z,25.33
2017-11-16T09:44:32.991Z,24.77
2017-11-16T09:47:00.590Z,23.80
2017-11-16T09:49:28.140Z,26.00
2017-11-16T09:51:55.885Z,24.77
2017-11-16T09:54:23.495Z,22.30
2017-11-16T09:56:51.097Z,20.67
2017-11-16T09:59:18.593Z,23.50
2017-11-16T10:01:46.145Z,24.10
2017-11-16T10:04:13.708Z,24.17
2017-11-16T10:06:42.375Z,23.20
2017-11-16T10:09:12.081Z,23.43
2017-11-16T10:11:40.523Z,28.63
2017-11-16T10:14:08.525Z,24.63
2017-11-16T10:16:36.112Z,23.57
2017-11-16T10:19:03.674Z,22.90
2017-11-16T10:21:32.914Z,23.77
2017-11-16T10:24:00.699Z,23.47
2017-11-16T10:26:28.217Z,23.70
2017-11-16T10:28:56.688Z,22.73
2017-11-16T10:31:24.208Z,25.43
2017-11-16T10:33:51.750Z,23.53
2017-11-16T10:36:19.234Z,20.97
2017-11-16T10:38:47.242Z,25.13
2017-11-16T10:41:14.753Z,23.00
2017-11-16T10:43:43.090Z,25.10
2017-11-16T10:46:11.094Z,22.37
2017-11-16T10:48:43.658Z,21.47
2017-11-16T10:51:11.126Z,23.50
2017-11-16T10:53:38.607Z,23.53
2017-11-16T10:56:06.141Z,24.43
2017-11-16T10:58:33.657Z,24.17
2017-11-16T11:01:01.176Z,20.83
2017-11-16T11:03:30.277Z,18.57
2017-11-16T11:05:59.087Z,21.20
2017-11-16T11:08:26.806Z,23.23
2017-11-16T11:10:54.283Z,23.23
2017-11-16T11:13:22.265Z,23.43
2017-11-16T11:15:50.020Z,21.30
2017-11-16T11:18:17.543Z,22.20
2017-11-16T11:20:45.360Z,21.13
2017-11-16T11:23:13.773Z,25.50
2017-11-16T11:25:41.289Z,23.57
2017-11-16T11:28:08.835Z,25.10
2017-11-16T11:30:36.359Z,23.00
2017-11-16T11:33:04.113Z,23.00
2017-11-16T11:35:31.784Z,23.00
2017-11-16T11:37:59.709Z,22.67
2017-11-16T11:40:27.179Z,22.43
2017-11-16T11:42:54.982Z,22.33
2017-11-16T11:45:22.578Z,21.77
2017-11-16T11:47:50.139Z,21.97
2017-11-16T11:50:17.655Z,21.03
2017-11-16T11:52:45.123Z,21.30
2017-11-16T11:55:12.627Z,21.03
2017-11-16T11:58:03.780Z,20.63
2017-11-16T12:00:31.319Z,19.07
2017-11-16T12:02:59.108Z,20.20
2017-11-16T12:05:26.714Z,18.80
2017-11-16T12:07:54.485Z,20.23
2017-11-16T12:10:22.030Z,18.13
2017-11-16T12:12:49.759Z,20.63
2017-11-16T12:15:17.451Z,20.47
2017-11-16T12:17:45.014Z,19.53
2017-11-16T12:20:12.574Z,21.07
2017-11-16T12:22:40.205Z,19.73
2017-11-16T12:25:07.709Z,18.10
2017-11-16T12:27:35.257Z,19.47
2017-11-16T12:30:02.901Z,18.53
2017-11-16T12:32:30.475Z,19.80
2017-11-16T12:34:57.960Z,18.43
2017-11-16T12:37:25.661Z,18.17
2017-11-16T12:39:53.173Z,18.57
2017-11-16T12:42:20.718Z,19.53
2017-11-16T12:44:48.302Z,20.53
2017-11-16T12:47:15.782Z,18.27
2017-11-16T12:49:43.386Z,18.90
2017-11-16T12:54:44.342Z,20.00
2017-11-16T12:57:11.903Z,18.80
2017-11-16T12:59:39.529Z,23.53
2017-11-16T13:02:07.043Z,20.07
2017-11-16T13:04:34.699Z,20.87
2017-11-16T13:07:02.276Z,20.37
2017-11-16T13:09:29.833Z,19.70
2017-11-16T13:11:57.506Z,20.07
2017-11-16T13:14:25.001Z,21.00
2017-11-16T13:16:52.520Z,18.97
2017-11-16T13:19:20.134Z,20.23
2017-11-16T13:21:47.743Z,20.63
2017-11-16T13:24:15.268Z,21.50
2017-11-16T13:26:42.802Z,25.97
2017-11-16T13:29:11.079Z,21.27
2017-11-16T13:31:39.417Z,19.17
2017-11-16T13:34:12.397Z,21.73
2017-11-16T13:36:40.885Z,20.20
2017-11-16T13:39:08.474Z,22.33
2017-11-16T13:41:36.042Z,23.03
2017-11-16T13:44:03.753Z,22.60
2017-11-16T13:46:31.312Z,23.33
2017-11-16T13:48:58.877Z,23.97
2017-11-16T13:51:26.438Z,25.10
2017-11-16T13:53:53.936Z,23.23
2017-11-16T13:56:21.535Z,24.30
2017-11-16T13:58:58.945Z,25.53
2017-11-16T14:01:26.406Z,25.57
2017-11-16T14:03:54.035Z,25.70
2017-11-16T14:06:21.581Z,25.27
2017-11-16T14:08:49.139Z,24.67
2017-11-16T14:11:18.628Z,23.33
2017-11-16T14:13:46.451Z,20.60
2017-11-16T14:16:13.961Z,22.30
2017-11-16T14:18:41.547Z,21.73
2017-11-16T14:21:09.261Z,24.67
2017-11-16T14:23:36.746Z,22.67
2017-11-16T14:26:04.287Z,22.53
2017-11-16T14:28:32.090Z,20.67
2017-11-16T14:30:59.614Z,24.40
2017-11-16T14:33:27.109Z,18.80
2017-11-16T14:35:56.635Z,22.20
2017-11-16T14:38:26.469Z,21.73
2017-11-16T14:40:55.502Z,23.83
2017-11-16T14:43:23.281Z,22.30
2017-11-16T14:45:52.537Z,22.13
2017-11-16T14:48:20.248Z,23.53
2017-11-16T14:50:49.264Z,22.60
2017-11-16T14:53:18.677Z,24.37
2017-11-16T14:55:46.278Z,27.87
2017-11-16T14:58:13.944Z,19.80
2017-11-16T15:00:41.739Z,24.03
2017-11-16T15:03:09.253Z,24.67
2017-11-16T15:05:36.828Z,25.17
2017-11-16T15:08:04.810Z,23.17
2017-11-16T15:10:32.387Z,21.33
2017-11-16T15:12:59.947Z,20.87
2017-11-16T15:15:27.464Z,22.10
2017-11-16T15:17:55.328Z,21.77
2017-11-16T15:20:23.259Z,19.93
2017-11-16T15:22:50.854Z,23.37
2017-11-16T15:25:18.435Z,22.17
2017-11-16T15:27:45.981Z,23.43
2017-11-16T15:30:13.580Z,22.37
2017-11-16T15:32:41.757Z,28.83
2017-11-16T15:35:09.376Z,23.23
2017-11-16T15:37:36.959Z,23.37
2017-11-16T15:40:05.250Z,27.57
2017-11-16T15:42:33.115Z,24.37
2017-11-16T15:45:00.641Z,24.60
2017-11-16T15:47:34.321Z,26.03
2017-11-16T15:50:02.586Z,25.37
2017-11-16T15:52:30.181Z,26.07
2017-11-16T15:54:59.628Z,23.87
2017-11-16T15:57:27.647Z,24.53
2017-11-16T15:59:55.218Z,29.30
2017-11-16T16:02:23.604Z,25.70
2017-11-16T16:04:51.408Z,26.13
2017-11-16T16:07:20.807Z,31.97
2017-11-16T16:09:48.478Z,33.50
2017-11-16T16:12:19.080Z,28.80
2017-11-16T16:14:47.020Z,27.37
2017-11-16T16:17:14.636Z,26.73
2017-11-16T16:19:42.541Z,27.47
2017-11-16T16:22:10.413Z,28.73
2017-11-16T16:24:38.039Z,27.07
2017-11-16T16:27:06.666Z,28.30
2017-11-16T16:29:34.526Z,30.10
2017-11-16T16:32:02.207Z,25.53
2017-11-16T16:34:30.045Z,26.10
2017-11-16T16:36:59.203Z,29.00
2017-11-16T16:39:27.051Z,25.97
2017-11-16T16:41:54.874Z,26.67
2017-11-16T16:44:22.487Z,26.53
2017-11-16T16:46:50.029Z,26.03
2017-11-16T16:49:17.579Z,27.83
2017-11-16T16:51:45.841Z,27.47
2017-11-16T16:54:13.800Z,28.77
2017-11-16T16:56:41.308Z,29.20
2017-11-16T16:59:08.933Z,27.47
2017-11-16T17:01:36.554Z,31.33
2017-11-16T17:04:04.267Z,28.27
2017-11-16T17:06:31.906Z,27.73
2017-11-16T17:08:59.403Z,29.17
2017-11-16T17:11:27.122Z,29.63
2017-11-16T17:13:54.749Z,32.10
2017-11-16T17:16:22.406Z,29.90
2017-11-16T17:18:49.930Z,30.87
2017-11-16T17:21:18.949Z,27.13
2017-11-16T17:23:47.213Z,31.97
2017-11-16T17:26:15.252Z,30.53
2017-11-16T17:28:44.608Z,31.03
2017-11-16T17:31:12.749Z,31.80
2017-11-16T17:33:41.463Z,31.80
2017-11-16T17:36:09.606Z,27.90
2017-11-16T17:38:37.455Z,29.90
2017-11-16T17:41:05.034Z,27.53
2017-11-16T17:43:34.120Z,31.77
2017-11-16T17:46:01.953Z,27.20
2017-11-16T17:48:30.922Z,28.90
2017-11-16T17:50:58.985Z,28.93
2017-11-16T17:53:26.826Z,29.47
2017-11-16T17:55:54.407Z,29.77
2017-11-16T17:58:22.105Z,28.13
2017-11-16T18:00:50.789Z,28.13
2017-11-16T18:03:18.422Z,29.13
2017-11-16T18:05:46.150Z,31.50
2017-11-16T18:08:14.126Z,32.53
2017-11-16T18:10:42.701Z,31.03
2017-11-16T18:13:10.268Z,30.27
2017-11-16T18:15:38.036Z,31.07
2017-11-16T18:18:06.227Z,31.07
2017-11-16T18:20:36.757Z,39.23
2017-11-16T18:23:05.019Z,33.70
2017-11-16T18:25:35.828Z,31.70
2017-11-16T18:28:04.222Z,33.80
2017-11-16T18:30:32.148Z,30.87
2017-11-16T18:32:59.758Z,34.33
2017-11-16T18:35:27.328Z,31.77
2017-11-16T18:37:55.259Z,33.47
2017-11-16T18:40:23.792Z,33.87
2017-11-16T18:42:51.618Z,32.50
2017-11-16T18:45:22.876Z,33.80
2017-11-16T18:47:51.976Z,31.77
2017-11-16T18:50:21.866Z,31.00
2017-11-16T18:52:49.783Z,35.37
2017-11-16T18:55:17.711Z,38.00
2017-11-16T18:57:45.684Z,32.33
2017-11-16T19:00:14.975Z,34.63
2017-11-16T19:02:47.070Z,27.97
2017-11-16T19:05:22.016Z,31.60
2017-11-16T19:07:50.014Z,35.30
2017-11-16T19:10:20.301Z,33.03
2017-11-16T19:12:49.197Z,36.60
2017-11-16T19:15:17.056Z,31.60
2017-11-16T19:17:47.034Z,36.77
2017-11-16T19:20:14.692Z,34.13
2017-11-16T19:22:42.480Z,36.87
2017-11-16T19:25:11.040Z,40.57
2017-11-16T19:27:38.956Z,38.47
2017-11-16T19:30:06.563Z,39.63
2017-11-16T19:32:34.985Z,42.67
2017-11-16T19:35:05.914Z,39.17
2017-11-16T19:37:34.148Z,37.43
2017-11-16T19:40:02.719Z,41.07
2017-11-16T19:42:30.540Z,40.87
2017-11-16T19:44:58.087Z,38.70
2017-11-16T19:47:35.454Z,45.53
2017-11-16T19:50:03.026Z,40.70
2017-11-16T19:52:30.811Z,41.57
2017-11-16T19:54:59.238Z,44.40
2017-11-16T19:57:46.099Z,42.63
2017-11-16T20:00:13.835Z,41.23
2017-11-16T20:02:41.609Z,41.90
2017-11-16T20:05:09.241Z,39.53
2017-11-16T20:07:36.869Z,37.47
2017-11-16T20:10:04.499Z,40.13
2017-11-16T20:12:32.857Z,37.40
2017-11-16T20:15:00.673Z,39.50
2017-11-16T20:17:28.534Z,37.07
2017-11-16T20:19:56.071Z,36.47
2017-11-16T20:22:24.339Z,36.47
2017-11-16T20:24:52.212Z,36.33
2017-11-16T20:27:20.534Z,38.03
2017-11-16T20:29:48.178Z,35.50
2017-11-16T20:32:15.786Z,36.40
2017-11-16T20:34:43.275Z,35.43
2017-11-16T20:37:13.870Z,35.50
2017-11-16T20:39:47.118Z,34.73
2017-11-16T20:42:20.606Z,39.27
2017-11-16T20:44:53.897Z,39.87
2017-11-16T20:47:27.792Z,35.63
2017-11-16T20:52:53.416Z,39.73
2017-11-16T20:55:20.881Z,35.17
2017-11-16T20:57:48.414Z,39.63
2017-11-16T21:00:15.923Z,40.67
2017-11-16T21:02:43.576Z,35.63
2017-11-16T21:05:11.181Z,37.77
2017-11-16T21:07:38.783Z,39.40
2017-11-16T21:10:06.357Z,35.33
2017-11-16T21:12:33.946Z,35.10
2017-11-16T21:15:01.462Z,36.20
2017-11-16T21:17:29.110Z,36.97
2017-11-16T21:19:57.537Z,37.37
2017-11-16T21:22:25.297Z,34.67
2017-11-16T21:24:53.257Z,36.30
2017-11-16T21:27:20.903Z,36.30
2017-11-16T21:29:49.052Z,31.77
2017-11-16T21:32:16.631Z,27.27
2017-11-16T21:34:44.143Z,33.17
2017-11-16T21:37:11.766Z,36.13
2017-11-16T21:39:39.329Z,35.20
2017-11-16T21:42:06.940Z,34.97
2017-11-16T21:44:34.889Z,34.70
2017-11-16T21:47:02.548Z,32.83
2017-11-16T21:49:30.114Z,34.20
2017-11-16T21:51:57.685Z,30.10
2017-11-16T21:54:26.005Z,28.97
2017-11-16T21:56:53.775Z,29.83
2017-11-16T21:59:21.312Z,27.23
2017-11-16T22:01:48.936Z,28.23
2017-11-16T22:04:17.307Z,28.93
2017-11-16T22:06:44.845Z,28.87
2017-11-16T22:09:12.383Z,29.40
2017-11-16T22:11:40.398Z,25.97
2017-11-16T22:14:07.974Z,24.87
2017-11-16T22:16:35.528Z,26.93
2017-11-16T22:19:07.966Z,24.63
2017-11-16T22:21:35.509Z,24.87
2017-11-16T22:24:03.041Z,23.10
2017-11-16T22:26:30.533Z,20.87
2017-11-16T22:28:58.235Z,23.87
2017-11-16T22:31:25.749Z,21.60
2017-11-16T22:33:53.346Z,22.87
2017-11-16T22:36:21.713Z,22.53
2017-11-16T22:38:49.398Z,21.27
2017-11-16T22:41:16.896Z,22.47
2017-11-16T22:43:44.425Z,23.43
2017-11-16T22:46:12.057Z,23.40
2017-11-16T22:48:39.565Z,22.27
2017-11-16T22:51:07.230Z,23.23
2017-11-16T22:53:34.700Z,23.67
2017-11-16T22:56:02.264Z,25.37
2017-11-16T22:58:29.866Z,22.07
2017-11-16T23:00:57.358Z,24.37
2017-11-16T23:03:24.879Z,25.20
2017-11-16T23:05:52.447Z,24.20
2017-11-16T23:08:19.956Z,24.37
2017-11-16T23:10:47.453Z,24.43
2017-11-16T23:13:14.934Z,25.20
2017-11-16T23:15:42.545Z,26.00
2017-11-16T23:18:20.933Z,28.73
2017-11-16T23:20:48.585Z,29.00
2017-11-16T23:23:16.050Z,28.97
2017-11-16T23:25:43.592Z,27.27
2017-11-16T23:28:11.185Z,28.60
2017-11-16T23:30:38.692Z,29.37
2017-11-16T23:33:06.233Z,27.97
2017-11-16T23:35:33.787Z,27.27
2017-11-16T23:38:01.359Z,25.57
2017-11-16T23:40:28.944Z,27.20
2017-11-16T23:42:56.483Z,30.37
2017-11-16T23:45:24.020Z,28.53
2017-11-16T23:47:51.612Z,28.30
2017-11-16T23:50:19.181Z,27.27
2017-11-16T23:52:47.010Z,25.70
2017-11-16T23:55:14.629Z,24.27
2017-11-16T23:57:51.925Z,23.27
